メインページ
METAR-TAF:

METAR-TAF

空港 :

ボーズマン, モンタナ州, アメリカ合衆国

緯度: 45-47-17N, 経度: 111-09-39W, 海抜: 1364m

現時点の気象観測

当レポートは59分前の03:56(UTC)に作成
変向風 4kt
気温 23°C
湿度 47%
気圧 1020 hPa
視程: 16.1km
晴天

METAR: KBZN 210356Z VRB04KT 10SM CLR 23/11 A3012 RMK AO2 SLP156 T02330106

時間: 22:55 (04:55 UTC)

予報

当レポートは5時間22分前の23:33(UTC)に作成
予報は21日の 00時(UTC)から 22日の 06時(UTC)まで有効
変向風 5kt
視程: 10km
高度15000ftの雲はほとんどない
高度25000ftの雲は散在している
21日の 1000時(UTC)から
変向風 3kt
視程: 10km
晴天
21日の 1800時(UTC)から
変向風 6kt
視程: 10km
高度15000ftの雲はほとんどない
高度25000ftの雲は散在している

TAF: KBZN 202333Z 2100/2206 VRB05KT P6SM FEW150 SCT250 FM211000 VRB03KT P6SM SKC FM211800 VRB06KT P6SM FEW150 SCT250

4,000以上の空港の気象観測と天気予報(METAR報とTAF報)

利用可能な観測所は地図上に黄色い丸と赤い丸で示す。

丸の上にカーソルを重ねると観測所名を参照できる。

次にクリックすると気象観測と天気予報を参照できる。

マップの切り替え:黒色「×」印の緑ボタンをクリックして拡大、「-」印の緑ボタンをクリックして縮小、緑色の三角印をクリックして隣りの地図に切り替え


METAR-TAF: